METAR ET TAF INFORMATION
METAR FOR EGLL
ADDS - METARS form results

(0001 UTC 03 December 2022)
Data provider http://aviationweather.gov/metar/data/
 
METAR text: EGLL 022350Z AUTO 05007KT 9999 FEW019 SCT027 BKN033 06/03 Q1024 NOSIG
Conditions at: EGLL (LONDON/HEATHROW , GB) observed 2350 UTC 02 December 2022
Temperature: 6.0°C (43°F)
Dewpoint: 3.0°C (37°F) [RH = 81%]
Pressure (altimeter): 30.24 inches Hg (1024.0 mb)
Winds: from the NE (50 degrees) at 8 MPH (7 knots; 3.6 m/s)
Visibility: 6 or more miles (10+ km)
Ceiling: 3300 feet AGL
Clouds: few clouds at 1900 feet AGL
scattered clouds at 2700 feet AGL
broken clouds at 3300 feet AGL
Weather: no significant weather observed at this time

METAR text: EGLL 022320Z AUTO 05009KT 010V070 9999 FEW019 OVC035 06/03 Q1024
Conditions at: EGLL (LONDON/HEATHROW , GB) observed 2320 UTC 02 December 2022
Temperature: 6.0°C (43°F)
Dewpoint: 3.0°C (37°F) [RH = 81%]
Pressure (altimeter): 30.24 inches Hg (1024.0 mb)
Winds: from the NE (50 degrees) at 10 MPH (9 knots; 4.6 m/s)
Visibility: 6 or more miles (10+ km)
Ceiling: 3500 feet AGL
Clouds: few clouds at 1900 feet AGL
overcast cloud deck at 3500 feet AGL
Weather: no significant weather observed at this time

Forecast for: EGLL (LONDON/HEATHROW , GB)
Text: TAF EGLL 022255Z 0300/0406 04010KT 9999 SCT030
Forecast period: 0000 UTC 03 December 2022 to 0600 UTC 04 December 2022
Forecast type: FROM: standard forecast or significant change
Winds: from the NE (40 degrees) at 12 MPH (10 knots; 5.1 m/s)
Visibility: 6 or more miles (10+ km)
Ceiling: at least 12,000 feet AGL
Clouds: scattered clouds at 3000 feet AGL
Weather: no significant weather forecast for this period
Text: PROB40
Forecast period: 0000 to 0600 UTC 04 December 2022
Forecast type: TEMPORARY: The following changes expected for less than half the time period
Visibility: 4 miles (6 km)
Ceiling: 800 feet AGL
Clouds: broken clouds at 800 feet AGL
Weather: RA DZ  (moderate rain, moderate drizzle)

 AÉROPORT DE AÉROPORT

 INFORMATIONS DE PISTE
Piste 09L Longueur de la piste 12799 ft Largeur de la piste 164 ft
Élévation de la piste 79 ft Seuil de la piste déplacés 1007 ft Runway heading 90
Piste 27R Longueur de la piste 12799 ft Largeur de la piste 164 ft
Élévation de la piste 78 ft Seuil de la piste déplacés 0 ft Runway heading 270
Piste 09R Longueur de la piste 12001 ft Largeur de la piste 148 ft
Élévation de la piste 75 ft Seuil de la piste déplacés 1013 ft Runway heading 90
Piste 27L Longueur de la piste 12001 ft Largeur de la piste 148 ft
Élévation de la piste 77 ft Seuil de la piste déplacés 0 ft Runway heading 270

 AÉROPORT FRÉQUENCES
Type APP Nom APP Féquence 119.725 MHZ
Type ATIS Nom ATIS Féquence 128.075 MHZ
Type CLD Nom CLNC DEL Féquence 121.975 MHZ
Type GND Nom GND Féquence 121.7 MHZ
Type TWR Nom TWR Féquence 118.475 MHZ

 SIDA DE NAVIGATION
Type VOR-DME Nom London Féquence 113600 KHZ



Powered by Virtual Airlines Manager [v2.6.2]